Time;durP1;ratioP1;P1;durP2;ratioP2;P2;SDS_P1;SDS_P2;PMS_P1;PMS_P2;Temp;Humidity;BMP_temperature;BMP_pressure;BME280_temperature;BME280_humidity;BME280_pressure;Samples;Min_cycle;Max_cycle;Signal;HPM_P1;HPM_P2
2021/04/22 00:01:13;;;;;;;14.43;10.93;;;;;;;9.66;67.04;100698.53;5040708;28;20040;-69
2021/04/22 00:03:39;;;;;;;14.20;10.57;;;;;;;9.45;66.79;100704.78;5049680;28;20403;-69
2021/04/22 00:06:04;;;;;;;13.15;9.45;;;;;;;9.31;67.20;100697.31;5040793;28;20034;-70
2021/04/22 00:08:30;;;;;;;10.45;7.88;;;;;;;9.22;67.52;100696.31;5057350;28;20062;-69
2021/04/22 00:10:56;;;;;;;10.00;7.40;;;;;;;9.21;68.93;100697.31;5047244;28;20037;-70
2021/04/22 00:13:28;;;;;;;10.23;6.95;;;;;;;9.17;67.06;100697.72;5048693;28;20029;-69
2021/04/22 00:15:54;;;;;;;12.43;8.07;;;;;;;9.09;66.65;100690.50;5048575;28;20474;-70
2021/04/22 00:18:20;;;;;;;11.68;8.90;;;;;;;9.05;67.09;100699.66;5030980;28;20048;-70
2021/04/22 00:20:46;;;;;;;12.32;8.60;;;;;;;8.99;67.48;100705.50;5051243;28;20072;-70
2021/04/22 00:23:13;;;;;;;14.55;9.90;;;;;;;8.91;68.87;100704.38;5052142;28;21336;-69
2021/04/22 00:25:41;;;;;;;15.07;11.43;;;;;;;8.76;70.06;100707.53;5052238;28;20167;-69
2021/04/22 00:28:06;;;;;;;16.20;11.82;;;;;;;8.58;70.59;100715.22;5059959;28;20032;-69
2021/04/22 00:30:32;;;;;;;19.83;14.00;;;;;;;8.69;69.25;100710.69;5050960;28;20090;-70
2021/04/22 00:32:57;;;;;;;18.13;13.23;;;;;;;8.71;70.53;100713.22;5061327;28;20555;-69
2021/04/22 00:35:24;;;;;;;15.90;11.02;;;;;;;8.67;69.86;100715.25;5036820;28;20061;-69
2021/04/22 00:37:49;;;;;;;14.63;10.73;;;;;;;8.63;69.11;100721.78;5052159;28;20029;-69
2021/04/22 00:40:23;;;;;;;10.70;7.68;;;;;;;8.62;70.38;100719.28;5047035;28;20079;-69
2021/04/22 00:42:49;;;;;;;13.93;10.10;;;;;;;8.68;69.06;100719.59;5048430;28;20040;-69
2021/04/22 00:45:16;;;;;;;12.93;9.30;;;;;;;8.73;70.29;100721.00;5034393;28;20119;-69
2021/04/22 00:47:42;;;;;;;14.98;12.05;;;;;;;8.69;70.33;100723.03;5056927;28;20040;-69
2021/04/22 00:50:11;;;;;;;17.90;12.38;;;;;;;8.74;71.15;100730.56;5048230;28;20508;-69
2021/04/22 00:52:37;;;;;;;14.38;11.00;;;;;;;8.74;71.44;100731.38;5051641;28;20036;-69
2021/04/22 00:55:03;;;;;;;18.73;12.80;;;;;;;8.79;69.78;100733.63;5049056;28;20083;-69
2021/04/22 00:57:29;;;;;;;20.73;14.27;;;;;;;8.71;70.45;100735.13;5051890;28;20116;-69
2021/04/22 00:59:54;;;;;;;19.05;13.35;;;;;;;8.76;70.70;100740.00;5049652;28;20153;-69
2021/04/22 01:02:19;;;;;;;18.30;12.15;;;;;;;8.76;69.08;100734.72;5051020;28;20029;-69
2021/04/22 01:04:49;;;;;;;14.07;10.25;;;;;;;8.80;69.29;100737.94;5051080;28;20086;-69
2021/04/22 01:07:15;;;;;;;12.00;8.68;;;;;;;8.83;71.04;100746.41;5051236;28;20100;-69
2021/04/22 01:09:41;;;;;;;16.33;11.63;;;;;;;8.78;70.33;100743.34;5051456;28;20029;-70
2021/04/22 01:12:08;;;;;;;16.13;12.25;;;;;;;8.70;69.80;100749.28;5055421;28;20038;-70
2021/04/22 01:14:33;;;;;;;13.98;9.77;;;;;;;8.63;70.92;100742.88;5051706;28;20029;-69
2021/04/22 01:16:59;;;;;;;16.48;11.73;;;;;;;8.51;71.74;100754.50;5058468;28;20039;-69
2021/04/22 01:19:24;;;;;;;19.42;12.50;;;;;;;8.40;72.02;100754.56;5051617;28;20036;-69
2021/04/22 01:21:52;;;;;;;15.23;11.48;;;;;;;8.33;71.28;100756.88;5049854;28;20037;-69
2021/04/22 01:24:17;;;;;;;13.50;10.45;;;;;;;8.29;71.47;100761.59;5042534;28;20556;-69
2021/04/22 01:26:42;;;;;;;15.70;12.25;;;;;;;8.22;71.21;100757.81;5050963;28;20061;-69
2021/04/22 01:29:08;;;;;;;16.95;11.65;;;;;;;8.18;70.20;100760.81;5059506;28;20124;-69
2021/04/22 01:31:33;;;;;;;17.00;11.57;;;;;;;8.15;72.64;100763.69;5042420;28;20040;-69
2021/04/22 01:34:16;;;;;;;13.43;10.00;;;;;;;8.12;72.31;100767.44;5057764;28;20036;-69
2021/04/22 01:36:44;;;;;;;15.00;10.65;;;;;;;8.07;73.01;100761.72;5050882;28;20404;-69
2021/04/22 01:39:12;;;;;;;17.17;11.75;;;;;;;8.05;71.93;100774.19;5048521;28;20029;-69
2021/04/22 01:41:37;;;;;;;22.27;15.30;;;;;;;8.03;74.40;100765.56;5050507;28;20357;-69
2021/04/22 01:44:03;;;;;;;21.55;15.75;;;;;;;8.02;74.50;100771.81;5049190;28;20059;-69
2021/04/22 01:46:29;;;;;;;20.92;14.68;;;;;;;7.97;73.62;100776.63;5034264;28;20029;-69
2021/04/22 01:48:54;;;;;;;24.35;15.90;;;;;;;8.01;72.65;100778.88;5053723;28;20037;-69
2021/04/22 01:51:21;;;;;;;20.33;14.60;;;;;;;8.07;73.12;100772.25;5043922;28;20128;-69
2021/04/22 01:53:46;;;;;;;18.50;12.15;;;;;;;8.05;72.49;100776.81;5050554;28;20044;-69
2021/04/22 01:56:14;;;;;;;15.70;11.45;;;;;;;8.08;73.97;100779.22;5050377;28;20029;-70
2021/04/22 01:58:39;;;;;;;18.48;14.63;;;;;;;8.01;74.18;100775.44;5031960;28;20073;-70
2021/04/22 02:01:05;;;;;;;17.88;13.15;;;;;;;8.00;72.31;100785.09;5049054;28;20071;-70
2021/04/22 02:03:32;;;;;;;17.85;11.85;;;;;;;8.07;71.78;100788.06;5046544;28;20513;-70
2021/04/22 02:05:58;;;;;;;19.08;12.90;;;;;;;8.01;73.23;100789.41;5047716;28;20524;-70
2021/04/22 02:08:23;;;;;;;17.00;12.80;;;;;;;8.00;72.93;100790.38;5047689;28;20041;-70
2021/04/22 02:10:49;;;;;;;16.20;12.23;;;;;;;8.02;72.49;100795.50;5050504;28;20041;-70
2021/04/22 02:13:17;;;;;;;20.73;13.10;;;;;;;7.92;73.63;100798.09;5049661;28;20104;-70
2021/04/22 02:15:43;;;;;;;20.10;13.75;;;;;;;7.96;72.09;100799.50;5051571;28;20032;-70
2021/04/22 02:18:09;;;;;;;20.45;13.55;;;;;;;8.01;72.05;100807.03;5032906;28;20029;-70
2021/04/22 02:20:35;;;;;;;16.50;12.10;;;;;;;7.98;72.11;100804.63;5048165;28;20382;-70
2021/04/22 02:23:00;;;;;;;18.20;12.30;;;;;;;7.97;72.35;100806.44;5049998;28;20033;-70
2021/04/22 02:25:28;;;;;;;19.23;13.02;;;;;;;7.93;72.38;100801.53;5045632;28;20036;-70
2021/04/22 02:27:55;;;;;;;17.83;11.32;;;;;;;7.94;72.11;100804.06;5050167;28;20033;-70
2021/04/22 02:30:24;;;;;;;19.33;11.43;;;;;;;7.88;71.79;100810.66;5052055;28;20466;-69
2021/04/22 02:32:51;;;;;;;17.50;12.13;;;;;;;7.87;72.11;100803.72;5059875;28;20488;-70
2021/04/22 02:35:18;;;;;;;19.33;12.88;;;;;;;7.81;72.17;100806.84;5046968;28;20032;-69
2021/04/22 02:37:44;;;;;;;18.42;11.63;;;;;;;7.84;72.05;100811.03;5049887;28;20029;-70
2021/04/22 02:40:14;;;;;;;18.38;11.88;;;;;;;7.83;71.91;100804.94;5047585;28;20044;-70
2021/04/22 02:42:40;;;;;;;16.98;10.93;;;;;;;7.75;72.83;100815.28;5031478;28;20043;-70
2021/04/22 02:45:12;;;;;;;18.77;11.23;;;;;;;7.80;72.26;100822.81;5029732;28;20033;-70
2021/04/22 02:47:37;;;;;;;19.13;12.00;;;;;;;7.83;72.27;100825.16;5054402;28;20067;-69
2021/04/22 02:50:05;;;;;;;14.18;10.00;;;;;;;7.79;72.37;100827.22;5048135;28;20057;-70
2021/04/22 02:52:31;;;;;;;17.10;10.20;;;;;;;7.77;72.73;100826.53;5041940;28;20037;-70
2021/04/22 02:54:56;;;;;;;17.17;11.00;;;;;;;7.74;72.44;100834.66;5046018;28;20029;-69
2021/04/22 02:57:21;;;;;;;18.55;10.52;;;;;;;7.76;71.51;100824.84;5049624;28;20041;-70
2021/04/22 02:59:47;;;;;;;14.23;10.05;;;;;;;7.64;72.27;100825.84;5048688;28;20082;-70
2021/04/22 03:02:12;;;;;;;16.85;10.73;;;;;;;7.71;71.51;100828.81;5030098;28;20029;-70
2021/04/22 03:04:37;;;;;;;17.05;9.25;;;;;;;7.62;71.77;100827.75;5049010;28;20047;-69
2021/04/22 03:07:03;;;;;;;13.68;8.75;;;;;;;7.59;71.59;100833.28;5031500;28;20036;-70
2021/04/22 03:09:28;;;;;;;15.70;9.18;;;;;;;7.60;71.04;100833.16;5047520;28;20032;-70
2021/04/22 03:11:53;;;;;;;14.38;8.52;;;;;;;7.63;70.84;100832.09;5047812;28;20147;-70
2021/04/22 03:14:19;;;;;;;14.98;8.50;;;;;;;7.61;70.68;100841.91;5027964;28;20434;-70
2021/04/22 03:16:44;;;;;;;15.35;8.52;;;;;;;7.45;71.32;100837.03;5057042;28;20112;-70
2021/04/22 03:19:10;;;;;;;16.27;7.35;;;;;;;7.43;70.93;100845.03;5045935;28;20067;-70
2021/04/22 03:21:35;;;;;;;12.63;6.88;;;;;;;7.49;70.24;100838.47;5043338;28;20312;-69
2021/04/22 03:24:00;;;;;;;12.15;6.97;;;;;;;7.47;69.93;100847.44;5048517;28;20120;-69
2021/04/22 03:26:26;;;;;;;13.48;7.05;;;;;;;7.41;69.75;100846.97;5049039;28;20112;-69
2021/04/22 03:28:51;;;;;;;17.08;6.85;;;;;;;7.44;68.98;100848.53;5048979;28;20037;-69
2021/04/22 03:31:16;;;;;;;13.38;6.60;;;;;;;7.41;68.70;100852.25;5048793;28;20033;-69
2021/04/22 03:33:42;;;;;;;12.75;5.65;;;;;;;7.36;68.87;100859.63;5037469;28;20067;-69
2021/04/22 03:36:07;;;;;;;12.00;5.63;;;;;;;7.38;68.56;100864.78;5049026;28;20082;-70
2021/04/22 03:38:32;;;;;;;15.63;6.07;;;;;;;7.38;68.23;100865.63;5050246;28;20082;-70
2021/04/22 03:40:58;;;;;;;9.55;5.45;;;;;;;7.33;68.13;100866.97;5051384;28;20056;-69
2021/04/22 03:43:23;;;;;;;9.07;4.65;;;;;;;7.27;68.21;100864.81;5051199;28;20139;-70
2021/04/22 03:45:48;;;;;;;10.57;5.10;;;;;;;7.27;68.33;100872.69;5049119;28;20040;-69
2021/04/22 03:48:13;;;;;;;11.55;5.38;;;;;;;7.30;67.34;100869.84;5061749;28;20029;-69
2021/04/22 03:50:39;;;;;;;17.63;6.20;;;;;;;7.32;66.88;100875.81;5057145;28;20041;-70
2021/04/22 03:53:04;;;;;;;16.63;5.97;;;;;;;7.39;65.88;100877.84;5048918;28;20040;-70
2021/04/22 03:55:30;;;;;;;12.52;5.65;;;;;;;7.36;66.07;100885.94;5052766;28;20045;-69
2021/04/22 03:57:55;;;;;;;10.75;5.30;;;;;;;7.25;65.99;100886.00;5061495;28;20064;-69
2021/04/22 04:00:22;;;;;;;10.52;4.60;;;;;;;7.27;65.97;100893.72;5052391;28;20045;-69
2021/04/22 04:02:48;;;;;;;17.45;5.50;;;;;;;7.26;65.68;100892.91;5053017;28;20061;-69
2021/04/22 04:05:13;;;;;;;12.63;5.53;;;;;;;7.16;66.33;100892.81;5052928;28;20025;-69
2021/04/22 04:07:39;;;;;;;9.68;4.57;;;;;;;7.19;65.69;100892.56;5034897;28;20086;-69
2021/04/22 04:12:33;;;;;;;9.23;4.38;;;;;;;7.11;66.34;100899.38;5026042;28;20034;-66
2021/04/22 04:14:59;;;;;;;12.10;4.38;;;;;;;7.05;66.29;100892.78;5024115;28;20103;-66
2021/04/22 04:17:24;;;;;;;15.43;5.50;;;;;;;7.02;66.09;100901.75;5031788;28;20056;-66
2021/04/22 04:19:49;;;;;;;11.23;4.97;;;;;;;6.96;66.03;100904.88;5032480;28;20745;-67
2021/04/22 04:22:15;;;;;;;13.05;5.57;;;;;;;6.92;65.82;100903.44;5024487;28;20033;-66
2021/04/22 04:24:40;;;;;;;9.15;4.25;;;;;;;6.87;66.01;100908.22;5032527;28;20037;-66
2021/04/22 04:27:05;;;;;;;11.20;4.68;;;;;;;6.86;65.76;100910.97;5032472;28;20050;-66
2021/04/22 04:29:31;;;;;;;11.40;4.93;;;;;;;6.80;65.79;100913.09;5032108;28;20048;-66
2021/04/22 04:31:57;;;;;;;13.85;5.13;;;;;;;6.74;66.03;100929.34;5014045;28;20048;-67
2021/04/22 04:34:23;;;;;;;12.35;4.65;;;;;;;6.81;65.46;100927.91;5014783;28;20025;-67
2021/04/22 04:36:48;;;;;;;14.20;4.78;;;;;;;6.83;64.84;100934.84;5015286;28;20057;-66
2021/04/22 04:39:14;;;;;;;13.25;4.80;;;;;;;6.71;65.40;100937.47;5038362;28;20058;-66
2021/04/22 04:41:41;;;;;;;10.48;4.13;;;;;;;6.78;64.68;100943.94;5018646;28;20040;-66
2021/04/22 04:44:08;;;;;;;7.65;3.72;;;;;;;6.75;64.80;100956.47;5030434;28;20038;-66
2021/04/22 04:46:33;;;;;;;16.80;4.40;;;;;;;6.77;65.06;100959.84;5016473;28;20035;-66
2021/04/22 04:48:59;;;;;;;8.43;3.42;;;;;;;6.73;65.00;100959.22;5023541;28;20034;-66
2021/04/22 04:51:24;;;;;;;11.25;3.80;;;;;;;6.78;64.54;100966.75;5028094;28;20041;-66
2021/04/22 04:53:51;;;;;;;6.63;3.55;;;;;;;6.78;64.42;100969.38;5026209;28;20033;-66
2021/04/22 04:56:17;;;;;;;10.77;4.53;;;;;;;6.82;63.99;100968.19;5004660;28;20084;-68
2021/04/22 04:58:43;;;;;;;11.43;3.95;;;;;;;6.78;63.54;100967.59;5027510;28;20041;-68
2021/04/22 05:01:08;;;;;;;7.95;3.58;;;;;;;6.69;64.07;100991.09;5032289;28;20535;-68
2021/04/22 05:03:33;;;;;;;7.85;3.67;;;;;;;6.71;63.42;100978.69;5031757;28;20033;-69
2021/04/22 05:05:58;;;;;;;9.95;3.58;;;;;;;6.65;63.20;100990.50;5031653;28;20053;-69
2021/04/22 05:08:24;;;;;;;14.73;3.92;;;;;;;6.63;64.00;100994.19;5031060;28;20452;-69
2021/04/22 05:10:49;;;;;;;12.82;3.85;;;;;;;6.66;64.05;100993.97;5031239;28;20053;-69
2021/04/22 05:13:14;;;;;;;11.93;3.92;;;;;;;6.74;63.05;101010.81;5031083;28;20072;-69
2021/04/22 05:15:40;;;;;;;9.27;3.40;;;;;;;6.72;63.40;101001.38;5037467;28;20482;-70
2021/04/22 05:18:05;;;;;;;9.32;3.75;;;;;;;6.83;62.09;101006.66;5014487;28;20384;-69
2021/04/22 05:20:30;;;;;;;7.75;3.40;;;;;;;6.68;63.29;101015.72;5024994;28;20029;-70
2021/04/22 05:22:56;;;;;;;12.48;3.55;;;;;;;6.82;62.62;101020.78;5018909;28;20095;-69
2021/04/22 05:25:21;;;;;;;9.48;3.53;;;;;;;6.84;62.31;101023.25;5031707;28;20058;-70
2021/04/22 05:27:46;;;;;;;9.70;3.53;;;;;;;6.88;62.20;101025.56;5031213;28;20048;-68
2021/04/22 05:30:12;;;;;;;12.43;3.78;;;;;;;6.88;62.11;101033.44;5030755;28;20045;-69
2021/04/22 05:32:37;;;;;;;7.43;3.28;;;;;;;6.93;61.54;101033.91;5035392;28;20041;-68
2021/04/22 05:35:03;;;;;;;8.20;2.80;;;;;;;6.98;61.50;101031.81;5013540;28;20486;-71
2021/04/22 05:37:28;;;;;;;9.60;2.97;;;;;;;7.00;61.60;101050.91;5031652;28;20072;-69
2021/04/22 05:39:54;;;;;;;9.43;3.58;;;;;;;7.23;60.78;101043.09;5031666;28;20087;-69
2021/04/22 05:42:19;;;;;;;7.28;3.33;;;;;;;7.28;60.32;101040.94;5023343;28;20578;-69
2021/04/22 05:44:44;;;;;;;8.18;3.08;;;;;;;7.39;59.60;101053.28;5032147;28;20079;-71
2021/04/22 05:47:10;;;;;;;5.38;2.60;;;;;;;7.54;59.88;101064.41;5034142;28;20025;-69
2021/04/22 05:49:36;;;;;;;8.57;2.70;;;;;;;7.59;59.27;101060.44;5018275;28;20025;-69
2021/04/22 05:52:01;;;;;;;11.77;2.83;;;;;;;7.55;57.71;101066.06;5031453;28;20183;-70
2021/04/22 05:54:26;;;;;;;6.88;2.65;;;;;;;7.61;58.29;101074.34;5031716;28;20053;-69
2021/04/22 05:56:52;;;;;;;6.93;2.78;;;;;;;7.95;58.25;101078.75;5012870;28;20036;-71
2021/04/22 05:59:17;;;;;;;9.05;2.78;;;;;;;8.05;56.67;101077.88;5030617;28;20379;-70
2021/04/22 06:01:42;;;;;;;9.35;2.65;;;;;;;8.08;56.80;101082.09;5030457;28;20379;-69
2021/04/22 06:04:08;;;;;;;9.00;2.83;;;;;;;8.00;55.88;101077.41;5030139;28;20045;-69
2021/04/22 06:06:33;;;;;;;7.68;2.47;;;;;;;7.93;56.58;101083.28;5030596;28;20482;-68
2021/04/22 06:08:59;;;;;;;9.60;2.55;;;;;;;8.20;56.06;101090.78;5030396;28;20401;-69
2021/04/22 06:11:24;;;;;;;8.57;2.50;;;;;;;8.36;54.78;101096.50;5029964;28;20543;-69
2021/04/22 06:13:49;;;;;;;11.95;3.33;;;;;;;8.39;54.85;101092.78;5030445;28;20044;-69
2021/04/22 06:16:16;;;;;;;5.82;2.30;;;;;;;8.50;55.05;101092.81;5033876;28;20173;-69
2021/04/22 06:18:41;;;;;;;6.03;2.10;;;;;;;8.94;54.26;101096.25;5025623;28;20041;-69
2021/04/22 06:21:06;;;;;;;7.70;2.20;;;;;;;9.08;52.96;101103.84;5030314;28;20053;-69
2021/04/22 06:23:32;;;;;;;11.23;2.53;;;;;;;9.33;53.92;101102.63;5030257;28;20034;-69
2021/04/22 06:25:57;;;;;;;6.93;2.38;;;;;;;9.53;52.59;101102.72;5030332;28;20030;-70
2021/04/22 06:28:23;;;;;;;6.30;2.30;;;;;;;9.69;50.30;101111.00;5029604;28;20033;-69
2021/04/22 06:30:49;;;;;;;7.90;2.20;;;;;;;9.65;50.04;101112.22;5029653;28;20033;-70
2021/04/22 06:33:14;;;;;;;12.57;2.40;;;;;;;9.82;48.78;101120.50;5033038;28;20038;-69
2021/04/22 06:35:40;;;;;;;6.78;2.55;;;;;;;9.84;49.21;101116.75;5011865;28;20382;-70
2021/04/22 06:38:05;;;;;;;6.97;2.00;;;;;;;10.03;49.99;101123.09;5011445;28;20394;-71
2021/04/22 06:40:31;;;;;;;9.10;2.75;;;;;;;10.07;48.44;101119.22;5023562;28;20025;-70
2021/04/22 06:42:56;;;;;;;8.20;2.38;;;;;;;9.91;48.78;101127.66;5011898;28;20033;-69
2021/04/22 06:45:22;;;;;;;8.68;2.63;;;;;;;10.20;47.99;101133.88;5029789;28;20030;-69
2021/04/22 06:47:48;;;;;;;10.23;2.83;;;;;;;10.58;46.58;101129.69;5027113;28;20450;-69
2021/04/22 06:50:17;;;;;;;10.07;2.67;;;;;;;10.34;46.63;101140.63;5020905;28;20022;-69
2021/04/22 06:52:42;;;;;;;12.52;3.60;;;;;;;10.93;45.11;101128.31;5016380;28;20530;-69
2021/04/22 06:55:13;;;;;;;8.55;2.53;;;;;;;11.10;44.95;101134.72;5026169;28;20057;-70
2021/04/22 06:57:38;;;;;;;18.00;6.10;;;;;;;11.35;44.29;101143.06;5016324;28;20036;-69
2021/04/22 07:00:13;;;;;;;11.68;2.78;;;;;;;11.67;43.24;101148.00;5029921;28;20397;-70
2021/04/22 07:02:39;;;;;;;12.57;2.70;;;;;;;11.92;42.32;101157.19;5031521;28;20393;-68
2021/04/22 07:05:06;;;;;;;11.30;2.92;;;;;;;12.06;41.29;101153.19;5030362;28;20049;-72
2021/04/22 07:07:31;;;;;;;8.70;2.70;;;;;;;12.13;39.72;101158.75;5030414;28;20512;-68
2021/04/22 07:09:56;;;;;;;7.47;2.30;;;;;;;11.98;40.17;101161.88;5030195;28;20033;-69
2021/04/22 07:12:22;;;;;;;10.23;2.65;;;;;;;11.64;40.38;101170.31;5028747;28;20037;-69
2021/04/22 07:14:47;;;;;;;10.75;2.35;;;;;;;11.65;40.13;101161.38;5029888;28;20029;-69
2021/04/22 07:17:12;;;;;;;8.45;2.10;;;;;;;11.57;41.63;101158.63;5033832;28;20021;-68
2021/04/22 07:19:38;;;;;;;5.60;1.83;;;;;;;12.35;41.35;101165.47;5029696;28;20041;-69
2021/04/22 07:22:04;;;;;;;10.15;2.72;;;;;;;13.02;38.39;101171.34;5011466;28;20389;-68
2021/04/22 07:24:30;;;;;;;12.18;2.78;;;;;;;13.38;36.76;101175.66;5029227;28;20033;-71
2021/04/22 07:26:55;;;;;;;10.98;2.80;;;;;;;13.19;35.94;101173.16;5012835;28;20386;-70
2021/04/22 07:29:20;;;;;;;7.75;2.55;;;;;;;12.77;37.39;101167.63;5028388;28;20090;-68
2021/04/22 07:31:47;;;;;;;9.82;3.03;;;;;;;13.22;35.39;101172.84;5027798;28;20508;-68
2021/04/22 07:34:12;;;;;;;8.43;2.03;;;;;;;13.62;37.21;101174.19;5028986;28;20041;-69
2021/04/22 07:36:38;;;;;;;10.85;2.80;;;;;;;13.80;35.64;101187.44;5031193;28;20026;-69
2021/04/22 07:39:03;;;;;;;10.52;2.83;;;;;;;13.66;36.13;101175.53;5016605;28;20083;-72
2021/04/22 07:41:29;;;;;;;8.40;2.55;;;;;;;13.67;34.89;101182.50;5034390;28;20048;-69
2021/04/22 07:43:54;;;;;;;8.32;2.25;;;;;;;14.27;34.35;101186.16;5034171;28;20168;-69
2021/04/22 07:46:19;;;;;;;9.48;2.55;;;;;;;14.18;35.48;101183.47;5021063;28;20490;-69
2021/04/22 07:48:45;;;;;;;9.05;2.28;;;;;;;14.38;35.70;101181.41;5022952;28;20034;-68
2021/04/22 07:51:10;;;;;;;9.57;2.88;;;;;;;15.12;33.56;101184.25;5032279;28;20034;-68
2021/04/22 07:53:35;;;;;;;10.00;2.67;;;;;;;15.12;31.93;101181.59;5033148;28;20036;-69
2021/04/22 07:56:01;;;;;;;5.88;1.73;;;;;;;15.35;32.65;101187.09;5021194;28;20180;-70
2021/04/22 07:58:30;;;;;;;8.65;1.88;;;;;;;15.33;33.31;101188.28;5028415;28;20029;-70
2021/04/22 08:00:56;;;;;;;6.80;1.85;;;;;;;16.05;32.01;101191.03;5034340;28;20037;-69
2021/04/22 08:03:21;;;;;;;10.85;2.75;;;;;;;15.58;32.24;101184.56;5023669;28;20494;-69
2021/04/22 08:05:47;;;;;;;9.55;2.60;;;;;;;16.20;31.01;101186.63;5015361;28;20037;-69
2021/04/22 08:08:14;;;;;;;7.43;2.35;;;;;;;15.88;32.17;101191.06;5014661;28;20038;-69
2021/04/22 08:10:42;;;;;;;6.35;2.15;;;;;;;15.87;32.27;101200.06;5026077;28;20063;-69
2021/04/22 08:13:09;;;;;;;9.00;3.03;;;;;;;16.80;28.91;101213.75;5023694;28;20046;-69
2021/04/22 08:15:36;;;;;;;8.70;2.95;;;;;;;16.29;30.51;101198.94;5016995;28;20021;-69
2021/04/22 08:18:02;;;;;;;9.15;2.67;;;;;;;16.74;29.22;101216.09;5034568;28;20037;-72
2021/04/22 08:20:28;;;;;;;10.90;3.20;;;;;;;16.70;28.06;101204.06;5033158;28;20033;-72
2021/04/22 08:22:54;;;;;;;6.95;2.78;;;;;;;15.60;31.15;101197.75;5032635;28;20402;-68
2021/04/22 08:25:28;;;;;;;11.50;3.13;;;;;;;15.71;31.84;101198.25;5033597;28;20030;-68
2021/04/22 08:27:55;;;;;;;10.05;2.92;;;;;;;15.67;30.49;101204.06;5029549;28;20432;-68
2021/04/22 08:30:28;;;;;;;8.68;2.53;;;;;;;15.80;30.63;101203.56;5032810;28;20128;-68
2021/04/22 08:32:54;;;;;;;6.65;2.60;;;;;;;16.20;30.69;101202.63;5034666;28;20095;-69
2021/04/22 08:35:19;;;;;;;6.72;2.45;;;;;;;16.87;29.66;101212.03;5029383;28;20462;-69
2021/04/22 08:37:44;;;;;;;9.10;2.83;;;;;;;17.17;29.67;101208.50;5023998;28;20550;-68
2021/04/22 08:40:12;;;;;;;6.20;2.20;;;;;;;16.88;28.74;101208.38;5023045;28;20095;-68
2021/04/22 08:42:40;;;;;;;6.63;2.42;;;;;;;16.88;29.44;101216.38;5030574;28;20041;-70
2021/04/22 08:45:07;;;;;;;8.93;2.67;;;;;;;16.82;29.29;101217.06;5020485;28;20045;-69
2021/04/22 08:47:33;;;;;;;7.75;3.08;;;;;;;17.15;26.95;101217.69;5021849;28;20040;-69
2021/04/22 08:49:59;;;;;;;12.65;3.05;;;;;;;16.56;27.89;101212.81;5022322;28;20129;-70
2021/04/22 08:52:24;;;;;;;7.25;3.10;;;;;;;16.02;30.92;101213.53;5032589;28;20401;-68
2021/04/22 08:54:51;;;;;;;9.73;3.20;;;;;;;15.70;31.10;101211.75;5033810;28;20034;-68
2021/04/22 08:57:17;;;;;;;10.43;3.05;;;;;;;16.52;28.86;101215.03;5036893;28;20036;-69
2021/04/22 08:59:42;;;;;;;8.13;2.63;;;;;;;16.85;28.97;101222.91;5020187;28;20043;-69
2021/04/22 09:02:08;;;;;;;7.60;2.40;;;;;;;17.59;28.59;101220.53;5035983;28;20459;-69
2021/04/22 09:04:35;;;;;;;7.75;2.40;;;;;;;18.23;27.04;101214.72;5033952;28;20025;-69
2021/04/22 09:07:00;;;;;;;12.50;3.65;;;;;;;18.72;25.74;101220.47;5033113;28;20497;-70
2021/04/22 09:09:26;;;;;;;6.82;2.33;;;;;;;18.40;26.13;101223.38;5032850;28;20084;-68
2021/04/22 09:11:51;;;;;;;7.90;2.65;;;;;;;18.41;26.82;101225.03;5032418;28;20285;-68
2021/04/22 09:14:19;;;;;;;7.13;2.25;;;;;;;18.37;26.10;101221.06;5024167;28;20025;-68
2021/04/22 09:16:47;;;;;;;6.28;2.03;;;;;;;18.52;27.35;101223.75;5032795;28;20497;-70
2021/04/22 09:19:19;;;;;;;8.82;2.90;;;;;;;19.02;25.49;101216.72;5014970;28;20045;-68
2021/04/22 09:21:51;;;;;;;7.75;2.97;;;;;;;18.61;26.06;101217.22;5032332;28;20037;-68
2021/04/22 09:24:21;;;;;;;8.90;2.65;;;;;;;17.81;27.92;101224.19;5032096;28;20075;-69
2021/04/22 09:26:56;;;;;;;5.80;2.40;;;;;;;16.89;28.67;101226.06;5032181;28;20517;-70
2021/04/22 09:29:46;;;;;;;6.43;2.05;;;;;;;17.07;28.77;101234.63;5024561;28;20437;-68
2021/04/22 09:32:19;;;;;;;5.55;2.35;;;;;;;17.31;26.58;101220.25;5031425;28;20406;-69
2021/04/22 09:34:50;;;;;;;7.70;2.60;;;;;;;16.81;28.15;101215.44;5028197;28;20056;-69
2021/04/22 09:37:16;;;;;;;;;;;;;;;15.84;30.65;101211.06;5017320;28;20045;-69
2021/04/22 09:39:42;;;;;;;6.20;2.20;;;;;;;15.40;33.02;101223.91;5036884;28;20301;-68
2021/04/22 09:42:12;;;;;;;7.30;2.75;;;;;;;15.09;31.43;101205.91;5012805;28;20041;-69
2021/04/22 09:44:39;;;;;;;12.68;3.38;;;;;;;15.55;31.55;101210.75;5031683;28;20433;-69
2021/04/22 09:47:09;;;;;;;5.32;2.28;;;;;;;14.89;32.92;101200.03;5034471;28;20071;-68
2021/04/22 09:49:47;;;;;;;6.88;2.30;;;;;;;15.42;30.10;101197.91;5017413;28;20054;-68
2021/04/22 09:52:16;;;;;;;9.43;2.88;;;;;;;14.82;30.08;101205.16;5029859;28;20029;-68
2021/04/22 09:54:44;;;;;;;6.70;2.42;;;;;;;14.42;32.63;101197.88;5013258;28;20042;-68
2021/04/22 09:57:19;;;;;;;8.15;2.30;;;;;;;14.48;35.38;101197.22;5013534;28;20401;-69
2021/04/22 09:59:45;;;;;;;7.10;2.80;;;;;;;15.04;31.31;101193.09;5013464;28;20041;-69
2021/04/22 10:02:10;;;;;;;6.57;2.63;;;;;;;15.00;29.56;101188.25;5029635;28;20052;-68
2021/04/22 10:04:39;;;;;;;7.90;2.90;;;;;;;14.31;30.95;101195.50;5030608;28;20037;-68
2021/04/22 10:07:21;;;;;;;7.72;2.58;;;;;;;14.51;31.26;101188.09;5030945;28;20092;-69
2021/04/22 10:09:46;;;;;;;6.65;2.47;;;;;;;14.34;31.91;101193.34;5013265;28;20659;-69
2021/04/22 10:12:27;;;;;;;9.73;3.00;;;;;;;13.73;32.09;101192.53;5031212;28;20091;-66
2021/04/22 10:14:54;;;;;;;14.83;2.80;;;;;;;13.45;32.09;101193.66;5014296;28;20038;-67
2021/04/22 10:17:22;;;;;;;6.93;2.53;;;;;;;13.51;33.03;101190.38;5021713;28;20034;-67
2021/04/22 10:19:59;;;;;;;7.68;3.10;;;;;;;13.51;35.04;101188.53;5032749;28;20489;-67
2021/04/22 10:22:33;;;;;;;8.35;2.75;;;;;;;13.48;35.13;101196.00;5030845;28;20120;-67
2021/04/22 10:25:01;;;;;;;7.55;2.50;;;;;;;13.75;34.87;101187.03;5032348;28;20029;-67
2021/04/22 10:27:28;;;;;;;6.82;2.53;;;;;;;13.45;34.15;101185.69;5032110;28;20041;-68
2021/04/22 10:29:55;;;;;;;10.80;3.22;;;;;;;13.90;32.32;101185.50;5032059;28;20494;-67
2021/04/22 10:32:22;;;;;;;5.65;2.33;;;;;;;13.61;32.71;101183.16;5032585;28;20073;-67
2021/04/22 10:34:50;;;;;;;10.15;2.60;;;;;;;13.93;32.11;101187.00;5020262;28;20033;-68
2021/04/22 10:37:20;;;;;;;9.38;2.35;;;;;;;13.76;32.74;101192.22;5013741;28;20037;-67
2021/04/22 10:39:47;;;;;;;9.40;3.33;;;;;;;13.95;32.88;101193.81;5031091;28;20037;-67
2021/04/22 10:42:14;;;;;;;5.57;2.42;;;;;;;13.68;34.92;101196.63;5030772;28;20038;-68
2021/04/22 10:44:40;;;;;;;8.93;3.10;;;;;;;13.70;34.23;101194.66;5031689;28;20473;-67
2021/04/22 10:47:05;;;;;;;8.23;2.10;;;;;;;13.63;34.30;101201.59;5033753;28;20052;-67
2021/04/22 10:49:32;;;;;;;7.90;2.63;;;;;;;13.49;35.48;101195.84;5017025;28;20033;-67
2021/04/22 10:51:58;;;;;;;11.65;2.85;;;;;;;13.51;35.17;101198.34;5031250;28;20042;-68
2021/04/22 10:54:24;;;;;;;9.40;3.25;;;;;;;13.64;32.70;101198.78;5013336;28;20029;-67
2021/04/22 10:57:01;;;;;;;10.15;2.95;;;;;;;13.28;36.93;101201.50;5031813;28;20041;-67
2021/04/22 10:59:26;;;;;;;7.78;2.78;;;;;;;13.40;34.58;101203.91;5030699;28;20064;-67
2021/04/22 11:01:52;;;;;;;9.55;2.90;;;;;;;13.28;34.02;101204.16;5030397;28;20029;-68
2021/04/22 11:04:18;;;;;;;11.18;3.28;;;;;;;13.23;33.54;101201.09;5022488;28;20029;-68
2021/04/22 11:06:44;;;;;;;9.98;2.90;;;;;;;13.13;34.64;101200.31;5020780;28;20098;-68
2021/04/22 11:09:19;;;;;;;5.72;2.35;;;;;;;13.43;38.55;101201.78;5030432;28;20398;-67
2021/04/22 11:11:59;;;;;;;10.90;2.90;;;;;;;13.30;33.70;101194.22;5030031;28;20037;-71
2021/04/22 11:14:35;;;;;;;9.90;2.63;;;;;;;13.19;33.78;101186.44;5012113;28;20745;-70
2021/04/22 11:17:01;;;;;;;11.07;3.17;;;;;;;13.10;33.99;101180.22;5030619;28;20038;-69
2021/04/22 11:19:45;;;;;;;6.10;2.42;;;;;;;13.05;34.93;101182.50;5012468;28;20041;-69
2021/04/22 11:22:27;;;;;;;6.75;2.75;;;;;;;13.30;36.70;101186.25;5029254;28;20025;-71
2021/04/22 11:24:53;;;;;;;9.05;2.53;;;;;;;13.59;33.37;101177.16;5030138;28;20034;-70